sensor_id;sensor_type;location;lat;lon;timestamp;pressure;altitude;pressure_sealevel;temperature;humidity
52591;BME280;38483;42.620;25.394;2023-06-22T00:01:19;97334.94;;;23.07;70.93
52591;BME280;38483;42.620;25.394;2023-06-22T00:03:48;97347.75;;;23.02;70.80
52591;BME280;38483;42.620;25.394;2023-06-22T00:06:15;97337.31;;;22.91;70.68
52591;BME280;38483;42.620;25.394;2023-06-22T00:08:42;97359.97;;;23.03;70.41
52591;BME280;38483;42.620;25.394;2023-06-22T00:11:10;97341.63;;;23.01;69.35
52591;BME280;38483;42.620;25.394;2023-06-22T00:13:37;97331.91;;;22.83;69.86
52591;BME280;38483;42.620;25.394;2023-06-22T00:16:05;97329.66;;;22.69;69.33
52591;BME280;38483;42.620;25.394;2023-06-22T00:18:32;97337.72;;;22.67;70.36
52591;BME280;38483;42.620;25.394;2023-06-22T00:20:59;97338.56;;;22.67;70.26
52591;BME280;38483;42.620;25.394;2023-06-22T00:23:26;97338.53;;;22.58;70.61
52591;BME280;38483;42.620;25.394;2023-06-22T00:25:53;97337.44;;;22.11;73.08
52591;BME280;38483;42.620;25.394;2023-06-22T00:28:20;97334.56;;;22.33;71.83
52591;BME280;38483;42.620;25.394;2023-06-22T00:30:49;97343.03;;;22.27;71.90
52591;BME280;38483;42.620;25.394;2023-06-22T00:33:17;97344.31;;;22.42;71.97
52591;BME280;38483;42.620;25.394;2023-06-22T00:35:44;97352.03;;;22.25;71.82
52591;BME280;38483;42.620;25.394;2023-06-22T00:38:12;97358.03;;;22.27;71.75
52591;BME280;38483;42.620;25.394;2023-06-22T00:40:41;97356.63;;;22.23;72.06
52591;BME280;38483;42.620;25.394;2023-06-22T00:43:08;97358.72;;;22.29;71.32
52591;BME280;38483;42.620;25.394;2023-06-22T00:45:35;97355.94;;;22.30;70.98
52591;BME280;38483;42.620;25.394;2023-06-22T00:48:03;97364.47;;;22.43;70.35
52591;BME280;38483;42.620;25.394;2023-06-22T00:50:32;97356.66;;;22.32;70.46
52591;BME280;38483;42.620;25.394;2023-06-22T00:53:04;97356.78;;;22.21;71.03
52591;BME280;38483;42.620;25.394;2023-06-22T00:55:37;97362.16;;;22.20;71.75
52591;BME280;38483;42.620;25.394;2023-06-22T00:58:06;97360.25;;;21.92;72.25
52591;BME280;38483;42.620;25.394;2023-06-22T01:00:38;97358.00;;;21.87;72.78
52591;BME280;38483;42.620;25.394;2023-06-22T01:03:06;97364.69;;;21.70;73.83
52591;BME280;38483;42.620;25.394;2023-06-22T01:05:38;97357.50;;;21.52;74.48
52591;BME280;38483;42.620;25.394;2023-06-22T01:08:08;97352.75;;;21.46;74.45
52591;BME280;38483;42.620;25.394;2023-06-22T01:13:35;97354.75;;;21.33;74.46
52591;BME280;38483;42.620;25.394;2023-06-22T01:16:26;97339.78;;;21.01;75.76
52591;BME280;38483;42.620;25.394;2023-06-22T01:19:50;97330.56;;;20.75;76.39
52591;BME280;38483;42.620;25.394;2023-06-22T01:26:08;97329.31;;;20.90;75.55
52591;BME280;38483;42.620;25.394;2023-06-22T01:29:28;97322.28;;;20.80;76.21
52591;BME280;38483;42.620;25.394;2023-06-22T01:32:51;97304.53;;;20.61;76.63
52591;BME280;38483;42.620;25.394;2023-06-22T01:36:12;97323.63;;;20.74;76.53
52591;BME280;38483;42.620;25.394;2023-06-22T01:39:33;97318.34;;;20.85;76.04
52591;BME280;38483;42.620;25.394;2023-06-22T01:42:54;97317.19;;;20.67;77.79
52591;BME280;38483;42.620;25.394;2023-06-22T01:46:14;97316.75;;;20.62;78.43
52591;BME280;38483;42.620;25.394;2023-06-22T01:49:35;97317.94;;;20.58;78.65
52591;BME280;38483;42.620;25.394;2023-06-22T01:52:56;97316.19;;;21.00;77.09
52591;BME280;38483;42.620;25.394;2023-06-22T01:56:17;97321.59;;;21.30;75.80
52591;BME280;38483;42.620;25.394;2023-06-22T02:00:14;97330.38;;;21.40;74.82
52591;BME280;38483;42.620;25.394;2023-06-22T02:03:21;97335.78;;;21.39;74.71
52591;BME280;38483;42.620;25.394;2023-06-22T02:06:42;97317.59;;;21.15;74.75
52591;BME280;38483;42.620;25.394;2023-06-22T02:10:02;97338.03;;;21.43;73.70
52591;BME280;38483;42.620;25.394;2023-06-22T02:13:23;97346.44;;;21.37;73.37
52591;BME280;38483;42.620;25.394;2023-06-22T02:16:44;97341.50;;;21.23;73.73
52591;BME280;38483;42.620;25.394;2023-06-22T02:20:11;97336.69;;;21.08;74.68
52591;BME280;38483;42.620;25.394;2023-06-22T02:23:29;97344.94;;;21.35;73.30
52591;BME280;38483;42.620;25.394;2023-06-22T02:26:50;97338.72;;;21.25;73.75
52591;BME280;38483;42.620;25.394;2023-06-22T02:30:11;97347.94;;;21.30;73.67
52591;BME280;38483;42.620;25.394;2023-06-22T02:33:31;97347.16;;;21.19;74.02
52591;BME280;38483;42.620;25.394;2023-06-22T02:36:52;97343.28;;;21.02;74.71
52591;BME280;38483;42.620;25.394;2023-06-22T02:40:13;97349.09;;;20.42;76.96
52591;BME280;38483;42.620;25.394;2023-06-22T02:43:33;97345.75;;;20.29;78.36
52591;BME280;38483;42.620;25.394;2023-06-22T02:46:54;97344.78;;;20.19;78.72
52591;BME280;38483;42.620;25.394;2023-06-22T02:50:15;97347.91;;;20.35;78.34
52591;BME280;38483;42.620;25.394;2023-06-22T02:53:36;97346.63;;;20.61;77.34
52591;BME280;38483;42.620;25.394;2023-06-22T02:56:58;97354.22;;;20.86;76.06
52591;BME280;38483;42.620;25.394;2023-06-22T03:00:19;97349.63;;;20.99;75.11
52591;BME280;38483;42.620;25.394;2023-06-22T03:03:40;97352.66;;;20.52;76.36
52591;BME280;38483;42.620;25.394;2023-06-22T03:07:01;97359.63;;;20.31;77.08
52591;BME280;38483;42.620;25.394;2023-06-22T03:10:22;97364.28;;;20.39;76.24
52591;BME280;38483;42.620;25.394;2023-06-22T03:13:43;97349.81;;;20.33;76.07
52591;BME280;38483;42.620;25.394;2023-06-22T03:17:04;97350.28;;;20.16;76.46
52591;BME280;38483;42.620;25.394;2023-06-22T03:20:26;97344.06;;;19.95;77.33
52591;BME280;38483;42.620;25.394;2023-06-22T03:23:47;97354.13;;;19.79;78.58
52591;BME280;38483;42.620;25.394;2023-06-22T03:27:07;97372.28;;;19.71;79.15
52591;BME280;38483;42.620;25.394;2023-06-22T03:30:28;97372.88;;;19.85;78.35
52591;BME280;38483;42.620;25.394;2023-06-22T03:33:50;97370.50;;;19.82;78.28
52591;BME280;38483;42.620;25.394;2023-06-22T03:37:13;97364.16;;;19.85;78.46
52591;BME280;38483;42.620;25.394;2023-06-22T03:40:33;97371.09;;;19.64;79.44
52591;BME280;38483;42.620;25.394;2023-06-22T03:43:54;97369.88;;;19.57;79.68
52591;BME280;38483;42.620;25.394;2023-06-22T03:47:14;97372.16;;;20.05;77.99
52591;BME280;38483;42.620;25.394;2023-06-22T03:50:35;97375.41;;;20.42;76.44
52591;BME280;38483;42.620;25.394;2023-06-22T03:53:56;97371.50;;;21.00;74.10
52591;BME280;38483;42.620;25.394;2023-06-22T03:57:16;97377.81;;;21.61;71.98
52591;BME280;38483;42.620;25.394;2023-06-22T04:00:38;97374.75;;;22.07;69.90
52591;BME280;38483;42.620;25.394;2023-06-22T04:03:58;97368.34;;;22.09;69.46
52591;BME280;38483;42.620;25.394;2023-06-22T04:07:19;97366.00;;;22.46;68.25
52591;BME280;38483;42.620;25.394;2023-06-22T04:10:40;97364.31;;;22.35;68.81
52591;BME280;38483;42.620;25.394;2023-06-22T04:14:01;97365.06;;;22.56;67.44
52591;BME280;38483;42.620;25.394;2023-06-22T04:17:21;97374.41;;;22.80;67.73
52591;BME280;38483;42.620;25.394;2023-06-22T04:20:42;97373.06;;;22.95;67.42
52591;BME280;38483;42.620;25.394;2023-06-22T04:24:03;97373.91;;;23.43;65.32
52591;BME280;38483;42.620;25.394;2023-06-22T04:27:24;97375.16;;;22.91;67.33
52591;BME280;38483;42.620;25.394;2023-06-22T04:30:45;97358.31;;;23.02;66.41
52591;BME280;38483;42.620;25.394;2023-06-22T04:34:06;97392.25;;;23.16;67.64
52591;BME280;38483;42.620;25.394;2023-06-22T04:37:26;97386.41;;;23.31;66.32
52591;BME280;38483;42.620;25.394;2023-06-22T04:40:49;97381.56;;;23.36;66.74
52591;BME280;38483;42.620;25.394;2023-06-22T04:44:15;97388.06;;;23.61;65.54
52591;BME280;38483;42.620;25.394;2023-06-22T04:47:35;97384.75;;;23.59;65.83
52591;BME280;38483;42.620;25.394;2023-06-22T04:50:56;97386.94;;;23.73;64.98
52591;BME280;38483;42.620;25.394;2023-06-22T04:54:16;97385.75;;;23.95;64.01
52591;BME280;38483;42.620;25.394;2023-06-22T04:57:37;97380.88;;;24.37;62.99
52591;BME280;38483;42.620;25.394;2023-06-22T05:01:04;97394.53;;;24.42;63.30
52591;BME280;38483;42.620;25.394;2023-06-22T05:04:26;97385.69;;;24.78;61.20
52591;BME280;38483;42.620;25.394;2023-06-22T05:07:51;97393.44;;;24.62;61.88
52591;BME280;38483;42.620;25.394;2023-06-22T05:11:12;97385.72;;;24.14;63.68
52591;BME280;38483;42.620;25.394;2023-06-22T05:14:33;97387.81;;;24.47;62.20
52591;BME280;38483;42.620;25.394;2023-06-22T05:17:53;97348.25;;;24.46;61.67
52591;BME280;38483;42.620;25.394;2023-06-22T05:21:14;97393.59;;;25.05;60.83
52591;BME280;38483;42.620;25.394;2023-06-22T05:24:35;97382.53;;;25.62;59.77
52591;BME280;38483;42.620;25.394;2023-06-22T05:27:56;97371.31;;;25.94;56.84
52591;BME280;38483;42.620;25.394;2023-06-22T05:31:17;97389.19;;;26.18;55.93
52591;BME280;38483;42.620;25.394;2023-06-22T05:34:38;97381.81;;;25.78;57.03
52591;BME280;38483;42.620;25.394;2023-06-22T05:37:58;97389.38;;;26.50;55.68
52591;BME280;38483;42.620;25.394;2023-06-22T05:41:19;97392.81;;;26.76;55.27
52591;BME280;38483;42.620;25.394;2023-06-22T05:44:40;97384.56;;;27.11;54.61
52591;BME280;38483;42.620;25.394;2023-06-22T05:48:00;97390.28;;;27.41;55.06
52591;BME280;38483;42.620;25.394;2023-06-22T05:51:21;97390.22;;;27.24;54.14
52591;BME280;38483;42.620;25.394;2023-06-22T05:54:42;97394.78;;;27.40;53.04
52591;BME280;38483;42.620;25.394;2023-06-22T05:58:03;97389.56;;;27.22;53.38
52591;BME280;38483;42.620;25.394;2023-06-22T06:01:23;97387.72;;;27.15;54.87
52591;BME280;38483;42.620;25.394;2023-06-22T06:04:44;97387.41;;;27.10;55.40
52591;BME280;38483;42.620;25.394;2023-06-22T06:08:05;97374.56;;;26.89;55.99
52591;BME280;38483;42.620;25.394;2023-06-22T06:11:26;97385.63;;;27.67;53.95
52591;BME280;38483;42.620;25.394;2023-06-22T06:14:46;97387.91;;;28.10;53.42
52591;BME280;38483;42.620;25.394;2023-06-22T06:17:47;97382.13;;;27.42;54.88
52591;BME280;38483;42.620;25.394;2023-06-22T06:21:08;97376.63;;;27.35;55.06
52591;BME280;38483;42.620;25.394;2023-06-22T06:24:28;97351.88;;;27.59;54.13
52591;BME280;38483;42.620;25.394;2023-06-22T06:27:50;97390.22;;;28.05;52.91
52591;BME280;38483;42.620;25.394;2023-06-22T06:31:10;97384.53;;;28.24;53.23
52591;BME280;38483;42.620;25.394;2023-06-22T06:34:31;97374.59;;;28.57;51.65
52591;BME280;38483;42.620;25.394;2023-06-22T06:37:52;97393.31;;;28.79;50.34
52591;BME280;38483;42.620;25.394;2023-06-22T06:41:13;97395.47;;;28.45;51.30
52591;BME280;38483;42.620;25.394;2023-06-22T06:44:34;97399.50;;;28.33;52.11
52591;BME280;38483;42.620;25.394;2023-06-22T06:47:55;97396.91;;;28.64;51.48
52591;BME280;38483;42.620;25.394;2023-06-22T06:51:16;97388.31;;;28.84;52.62
52591;BME280;38483;42.620;25.394;2023-06-22T06:54:37;97382.34;;;28.36;52.94
52591;BME280;38483;42.620;25.394;2023-06-22T06:57:54;97388.56;;;28.67;51.96
52591;BME280;38483;42.620;25.394;2023-06-22T07:00:21;97374.47;;;28.89;50.93
52591;BME280;38483;42.620;25.394;2023-06-22T07:02:48;97374.94;;;28.92;50.47
52591;BME280;38483;42.620;25.394;2023-06-22T07:05:16;97377.94;;;29.12;50.71
52591;BME280;38483;42.620;25.394;2023-06-22T07:07:43;97379.19;;;29.55;49.72
52591;BME280;38483;42.620;25.394;2023-06-22T07:10:10;97378.34;;;29.77;47.99
52591;BME280;38483;42.620;25.394;2023-06-22T07:12:57;97385.50;;;29.77;48.58
52591;BME280;38483;42.620;25.394;2023-06-22T07:16:18;97392.38;;;29.94;48.07
52591;BME280;38483;42.620;25.394;2023-06-22T07:19:39;97390.56;;;30.09;47.62
52591;BME280;38483;42.620;25.394;2023-06-22T07:22:59;97380.16;;;29.77;48.35
52591;BME280;38483;42.620;25.394;2023-06-22T07:26:20;97379.59;;;29.44;49.21
52591;BME280;38483;42.620;25.394;2023-06-22T07:29:46;97390.22;;;29.89;47.94
52591;BME280;38483;42.620;25.394;2023-06-22T07:33:07;97388.31;;;29.98;47.41
52591;BME280;38483;42.620;25.394;2023-06-22T07:36:28;97386.69;;;29.74;48.17
52591;BME280;38483;42.620;25.394;2023-06-22T07:39:49;97380.91;;;29.48;48.58
52591;BME280;38483;42.620;25.394;2023-06-22T07:43:09;97382.69;;;29.70;47.79
52591;BME280;38483;42.620;25.394;2023-06-22T07:46:30;97361.03;;;29.73;48.85
52591;BME280;38483;42.620;25.394;2023-06-22T07:49:13;97368.16;;;30.10;46.98
52591;BME280;38483;42.620;25.394;2023-06-22T07:51:40;97369.16;;;29.94;47.16
52591;BME280;38483;42.620;25.394;2023-06-22T07:54:09;97374.13;;;30.26;47.03
52591;BME280;38483;42.620;25.394;2023-06-22T07:56:36;97378.00;;;30.24;46.48
52591;BME280;38483;42.620;25.394;2023-06-22T07:59:04;97370.81;;;30.10;46.25
52591;BME280;38483;42.620;25.394;2023-06-22T08:01:31;97374.00;;;29.91;47.23
52591;BME280;38483;42.620;25.394;2023-06-22T08:03:58;97262.38;;;29.20;47.63
52591;BME280;38483;42.620;25.394;2023-06-22T08:06:25;97376.66;;;29.76;47.03
52591;BME280;38483;42.620;25.394;2023-06-22T08:08:52;97365.81;;;29.78;46.24
52591;BME280;38483;42.620;25.394;2023-06-22T08:11:21;97382.31;;;29.81;46.76
52591;BME280;38483;42.620;25.394;2023-06-22T08:13:51;97387.03;;;29.94;46.73
52591;BME280;38483;42.620;25.394;2023-06-22T08:16:18;97385.09;;;29.88;47.50
52591;BME280;38483;42.620;25.394;2023-06-22T08:18:45;97382.66;;;29.78;46.77
52591;BME280;38483;42.620;25.394;2023-06-22T08:21:12;97381.66;;;29.79;45.97
52591;BME280;38483;42.620;25.394;2023-06-22T08:23:39;97382.69;;;29.70;44.86
52591;BME280;38483;42.620;25.394;2023-06-22T08:26:06;97371.25;;;29.61;44.47
52591;BME280;38483;42.620;25.394;2023-06-22T08:28:33;97362.97;;;29.56;45.59
52591;BME280;38483;42.620;25.394;2023-06-22T08:31:02;97380.75;;;29.64;46.02
52591;BME280;38483;42.620;25.394;2023-06-22T08:33:30;97359.53;;;29.48;45.65
52591;BME280;38483;42.620;25.394;2023-06-22T08:35:58;97376.88;;;29.29;47.89
52591;BME280;38483;42.620;25.394;2023-06-22T08:38:26;97365.69;;;29.03;49.51
52591;BME280;38483;42.620;25.394;2023-06-22T08:40:53;97372.25;;;28.62;51.57
52591;BME280;38483;42.620;25.394;2023-06-22T08:43:20;97361.38;;;28.71;51.10
52591;BME280;38483;42.620;25.394;2023-06-22T08:45:48;97378.69;;;28.75;51.04
52591;BME280;38483;42.620;25.394;2023-06-22T08:48:15;97363.13;;;28.56;50.20
52591;BME280;38483;42.620;25.394;2023-06-22T08:50:42;97361.31;;;28.79;49.87
52591;BME280;38483;42.620;25.394;2023-06-22T08:53:09;97380.81;;;28.80;49.50
52591;BME280;38483;42.620;25.394;2023-06-22T08:55:36;97377.13;;;28.89;49.41
52591;BME280;38483;42.620;25.394;2023-06-22T08:58:03;97369.13;;;28.89;49.71
52591;BME280;38483;42.620;25.394;2023-06-22T09:00:31;97375.28;;;29.12;47.88
52591;BME280;38483;42.620;25.394;2023-06-22T09:03:01;97379.66;;;29.36;46.80
52591;BME280;38483;42.620;25.394;2023-06-22T09:05:29;97377.19;;;29.04;49.39
52591;BME280;38483;42.620;25.394;2023-06-22T09:07:56;97379.38;;;28.69;51.75
52591;BME280;38483;42.620;25.394;2023-06-22T09:10:26;97375.22;;;28.97;51.20
52591;BME280;38483;42.620;25.394;2023-06-22T09:12:53;97369.19;;;29.04;50.53
52591;BME280;38483;42.620;25.394;2023-06-22T09:15:20;97368.97;;;29.36;49.64
52591;BME280;38483;42.620;25.394;2023-06-22T09:17:47;97374.22;;;28.98;49.51
52591;BME280;38483;42.620;25.394;2023-06-22T09:20:15;97342.91;;;28.92;49.97
52591;BME280;38483;42.620;25.394;2023-06-22T09:22:42;97364.88;;;29.48;48.43
52591;BME280;38483;42.620;25.394;2023-06-22T09:25:09;97358.59;;;29.18;47.68
52591;BME280;38483;42.620;25.394;2023-06-22T09:28:14;97365.59;;;29.42;46.66
52591;BME280;38483;42.620;25.394;2023-06-22T09:31:00;97372.84;;;29.33;45.04
52591;BME280;38483;42.620;25.394;2023-06-22T09:33:27;97367.75;;;29.24;44.61
52591;BME280;38483;42.620;25.394;2023-06-22T09:35:54;97367.16;;;29.36;43.40
52591;BME280;38483;42.620;25.394;2023-06-22T09:38:23;97354.47;;;29.16;43.98
52591;BME280;38483;42.620;25.394;2023-06-22T09:40:50;97366.78;;;29.39;43.67
52591;BME280;38483;42.620;25.394;2023-06-22T09:43:17;97367.88;;;29.30;44.35
52591;BME280;38483;42.620;25.394;2023-06-22T09:45:44;97359.84;;;29.08;43.63
52591;BME280;38483;42.620;25.394;2023-06-22T09:48:11;97363.59;;;28.90;44.31
52591;BME280;38483;42.620;25.394;2023-06-22T09:50:38;97366.28;;;28.90;43.19
52591;BME280;38483;42.620;25.394;2023-06-22T09:53:05;97362.34;;;28.78;43.26
52591;BME280;38483;42.620;25.394;2023-06-22T09:55:33;97368.66;;;28.77;44.41
52591;BME280;38483;42.620;25.394;2023-06-22T09:58:00;97373.00;;;28.40;46.56
52591;BME280;38483;42.620;25.394;2023-06-22T10:00:27;97368.75;;;28.14;48.82
52591;BME280;38483;42.620;25.394;2023-06-22T10:02:55;97375.59;;;28.17;49.66
52591;BME280;38483;42.620;25.394;2023-06-22T10:05:27;97355.75;;;28.19;50.73
52591;BME280;38483;42.620;25.394;2023-06-22T10:07:54;97361.28;;;28.49;50.00
52591;BME280;38483;42.620;25.394;2023-06-22T10:10:21;97361.50;;;28.39;49.75
52591;BME280;38483;42.620;25.394;2023-06-22T10:12:55;97352.16;;;28.43;49.70
52591;BME280;38483;42.620;25.394;2023-06-22T10:15:24;97361.16;;;28.42;47.26
52591;BME280;38483;42.620;25.394;2023-06-22T10:17:51;97354.50;;;28.38;47.21
52591;BME280;38483;42.620;25.394;2023-06-22T10:20:18;97355.78;;;28.58;44.66
52591;BME280;38483;42.620;25.394;2023-06-22T10:22:47;97341.47;;;28.82;44.08
52591;BME280;38483;42.620;25.394;2023-06-22T10:25:14;97356.50;;;29.06;42.04
52591;BME280;38483;42.620;25.394;2023-06-22T10:27:41;97358.88;;;29.46;39.72
52591;BME280;38483;42.620;25.394;2023-06-22T10:30:11;97353.31;;;29.70;39.86
52591;BME280;38483;42.620;25.394;2023-06-22T10:32:41;97342.91;;;30.12;39.16
52591;BME280;38483;42.620;25.394;2023-06-22T10:35:10;97349.00;;;30.06;39.75
52591;BME280;38483;42.620;25.394;2023-06-22T10:37:37;97371.00;;;29.94;40.01
52591;BME280;38483;42.620;25.394;2023-06-22T10:40:05;97363.25;;;29.84;40.13
52591;BME280;38483;42.620;25.394;2023-06-22T10:42:35;97344.72;;;29.97;39.56
52591;BME280;38483;42.620;25.394;2023-06-22T10:45:06;97333.41;;;29.95;40.73
52591;BME280;38483;42.620;25.394;2023-06-22T10:47:34;97336.16;;;29.87;40.49
52591;BME280;38483;42.620;25.394;2023-06-22T10:50:01;97344.09;;;30.10;39.72
52591;BME280;38483;42.620;25.394;2023-06-22T10:52:30;97337.75;;;29.96;40.90
52591;BME280;38483;42.620;25.394;2023-06-22T10:54:58;97336.91;;;30.10;39.05
52591;BME280;38483;42.620;25.394;2023-06-22T10:57:25;97339.75;;;30.23;39.00
52591;BME280;38483;42.620;25.394;2023-06-22T10:59:52;97321.91;;;30.38;39.85
52591;BME280;38483;42.620;25.394;2023-06-22T11:02:19;97333.84;;;30.28;40.46
52591;BME280;38483;42.620;25.394;2023-06-22T11:04:47;97311.75;;;30.05;40.47
52591;BME280;38483;42.620;25.394;2023-06-22T11:07:15;97337.81;;;29.73;41.48
52591;BME280;38483;42.620;25.394;2023-06-22T11:09:45;97338.09;;;29.56;43.19
52591;BME280;38483;42.620;25.394;2023-06-22T11:12:12;97318.69;;;29.62;43.42
52591;BME280;38483;42.620;25.394;2023-06-22T11:14:39;97334.47;;;29.71;43.84
52591;BME280;38483;42.620;25.394;2023-06-22T11:17:07;97321.88;;;30.09;42.15
52591;BME280;38483;42.620;25.394;2023-06-22T11:19:34;97335.72;;;30.27;40.95
52591;BME280;38483;42.620;25.394;2023-06-22T11:22:01;97340.22;;;29.83;42.83
52591;BME280;38483;42.620;25.394;2023-06-22T11:24:28;97331.25;;;29.39;44.47
52591;BME280;38483;42.620;25.394;2023-06-22T11:26:55;97322.19;;;29.25;45.74
52591;BME280;38483;42.620;25.394;2023-06-22T11:29:25;97321.47;;;29.31;46.07
52591;BME280;38483;42.620;25.394;2023-06-22T11:32:06;97320.78;;;29.15;46.71
52591;BME280;38483;42.620;25.394;2023-06-22T11:34:34;97324.41;;;29.22;46.70
52591;BME280;38483;42.620;25.394;2023-06-22T11:37:01;97298.63;;;29.06;46.68
52591;BME280;38483;42.620;25.394;2023-06-22T11:39:28;97332.56;;;29.43;45.74
52591;BME280;38483;42.620;25.394;2023-06-22T11:42:11;97330.06;;;29.41;44.99
52591;BME280;38483;42.620;25.394;2023-06-22T11:44:38;97330.00;;;29.27;46.49
52591;BME280;38483;42.620;25.394;2023-06-22T11:47:05;97289.00;;;29.05;46.25
52591;BME280;38483;42.620;25.394;2023-06-22T11:49:32;97336.47;;;29.10;47.80
52591;BME280;38483;42.620;25.394;2023-06-22T11:52:00;97334.56;;;28.65;49.32
52591;BME280;38483;42.620;25.394;2023-06-22T11:54:27;97326.09;;;28.61;49.82
52591;BME280;38483;42.620;25.394;2023-06-22T11:56:54;97331.75;;;28.66;49.15
52591;BME280;38483;42.620;25.394;2023-06-22T11:59:22;97327.09;;;28.91;47.13
52591;BME280;38483;42.620;25.394;2023-06-22T12:01:49;97324.72;;;28.96;45.78
52591;BME280;38483;42.620;25.394;2023-06-22T12:04:18;97322.94;;;29.11;44.91
52591;BME280;38483;42.620;25.394;2023-06-22T12:06:45;97330.66;;;29.06;43.39
52591;BME280;38483;42.620;25.394;2023-06-22T12:09:13;97326.09;;;29.37;43.19
52591;BME280;38483;42.620;25.394;2023-06-22T12:11:41;97308.56;;;29.43;43.05
52591;BME280;38483;42.620;25.394;2023-06-22T12:14:08;97319.63;;;29.69;41.92
52591;BME280;38483;42.620;25.394;2023-06-22T12:16:35;97321.56;;;29.60;43.60
52591;BME280;38483;42.620;25.394;2023-06-22T12:19:02;97319.84;;;29.97;42.96
52591;BME280;38483;42.620;25.394;2023-06-22T12:21:29;97313.22;;;29.93;43.53
52591;BME280;38483;42.620;25.394;2023-06-22T12:23:56;97316.78;;;29.70;44.04
52591;BME280;38483;42.620;25.394;2023-06-22T12:26:23;97298.38;;;29.24;45.42
52591;BME280;38483;42.620;25.394;2023-06-22T12:28:50;97318.28;;;29.36;46.57
52591;BME280;38483;42.620;25.394;2023-06-22T12:31:17;97305.88;;;29.43;45.57
52591;BME280;38483;42.620;25.394;2023-06-22T12:33:44;97302.03;;;29.23;46.05
52591;BME280;38483;42.620;25.394;2023-06-22T12:36:12;97322.25;;;29.40;46.49
52591;BME280;38483;42.620;25.394;2023-06-22T12:38:39;97315.19;;;29.47;46.99
52591;BME280;38483;42.620;25.394;2023-06-22T12:41:06;97303.06;;;29.59;46.18
52591;BME280;38483;42.620;25.394;2023-06-22T12:43:33;97272.75;;;29.15;47.31
52591;BME280;38483;42.620;25.394;2023-06-22T12:46:00;97309.63;;;29.34;46.97
52591;BME280;38483;42.620;25.394;2023-06-22T12:48:42;97280.56;;;28.93;47.58
52591;BME280;38483;42.620;25.394;2023-06-22T12:51:09;97303.81;;;29.08;48.32
52591;BME280;38483;42.620;25.394;2023-06-22T12:53:36;97307.47;;;29.07;48.14
52591;BME280;38483;42.620;25.394;2023-06-22T12:56:04;97321.53;;;29.01;49.37
52591;BME280;38483;42.620;25.394;2023-06-22T12:58:31;97310.66;;;28.79;47.91
52591;BME280;38483;42.620;25.394;2023-06-22T13:00:58;97310.31;;;28.52;49.47
52591;BME280;38483;42.620;25.394;2023-06-22T13:03:25;97314.81;;;28.51;49.88
52591;BME280;38483;42.620;25.394;2023-06-22T13:05:54;97318.53;;;28.34;49.75
52591;BME280;38483;42.620;25.394;2023-06-22T13:08:21;97294.56;;;28.34;49.82
52591;BME280;38483;42.620;25.394;2023-06-22T13:11:01;97307.63;;;28.21;50.53
52591;BME280;38483;42.620;25.394;2023-06-22T13:13:28;97292.47;;;28.22;50.91
52591;BME280;38483;42.620;25.394;2023-06-22T13:15:55;97297.22;;;28.34;50.80
52591;BME280;38483;42.620;25.394;2023-06-22T13:18:22;97286.66;;;28.49;50.20
52591;BME280;38483;42.620;25.394;2023-06-22T13:20:49;97293.84;;;28.79;50.04
52591;BME280;38483;42.620;25.394;2023-06-22T13:23:16;97285.09;;;28.93;48.50
52591;BME280;38483;42.620;25.394;2023-06-22T13:25:43;97283.88;;;28.95;48.09
52591;BME280;38483;42.620;25.394;2023-06-22T13:28:10;97264.28;;;28.88;47.54
52591;BME280;38483;42.620;25.394;2023-06-22T13:30:54;97287.97;;;29.29;46.75
52591;BME280;38483;42.620;25.394;2023-06-22T13:33:21;97296.41;;;29.18;46.78
52591;BME280;38483;42.620;25.394;2023-06-22T13:35:48;97294.53;;;29.41;47.29
52591;BME280;38483;42.620;25.394;2023-06-22T13:38:16;97285.16;;;29.59;46.35
52591;BME280;38483;42.620;25.394;2023-06-22T13:40:44;97290.91;;;29.71;45.11
52591;BME280;38483;42.620;25.394;2023-06-22T13:43:11;97283.09;;;29.69;46.11
52591;BME280;38483;42.620;25.394;2023-06-22T13:45:38;97287.72;;;29.76;45.84
52591;BME280;38483;42.620;25.394;2023-06-22T13:48:05;97296.97;;;29.65;45.55
52591;BME280;38483;42.620;25.394;2023-06-22T13:50:32;97292.44;;;29.88;43.94
52591;BME280;38483;42.620;25.394;2023-06-22T13:53:00;97289.16;;;29.63;43.35
52591;BME280;38483;42.620;25.394;2023-06-22T13:55:27;97290.91;;;29.71;44.10
52591;BME280;38483;42.620;25.394;2023-06-22T13:57:54;97285.28;;;29.66;44.84
52591;BME280;38483;42.620;25.394;2023-06-22T14:00:21;97286.25;;;29.13;46.32
52591;BME280;38483;42.620;25.394;2023-06-22T14:02:48;97283.66;;;28.82;47.02
52591;BME280;38483;42.620;25.394;2023-06-22T14:05:15;97277.63;;;28.88;45.47
52591;BME280;38483;42.620;25.394;2023-06-22T14:07:43;97283.94;;;28.65;46.75
52591;BME280;38483;42.620;25.394;2023-06-22T14:10:10;97275.72;;;28.74;46.47
52591;BME280;38483;42.620;25.394;2023-06-22T14:12:37;97295.38;;;28.73;45.61
52591;BME280;38483;42.620;25.394;2023-06-22T14:15:05;97279.75;;;28.93;45.96
52591;BME280;38483;42.620;25.394;2023-06-22T14:17:32;97285.13;;;29.08;46.20
52591;BME280;38483;42.620;25.394;2023-06-22T14:20:00;97283.34;;;29.00;46.81
52591;BME280;38483;42.620;25.394;2023-06-22T14:22:26;97290.75;;;28.90;46.85
52591;BME280;38483;42.620;25.394;2023-06-22T14:24:56;97276.06;;;28.94;46.46
52591;BME280;38483;42.620;25.394;2023-06-22T14:27:24;97278.38;;;28.74;46.81
52591;BME280;38483;42.620;25.394;2023-06-22T14:29:51;97264.53;;;28.79;47.09
52591;BME280;38483;42.620;25.394;2023-06-22T14:32:18;97216.09;;;28.67;46.31
52591;BME280;38483;42.620;25.394;2023-06-22T14:34:45;97262.09;;;29.15;45.73
52591;BME280;38483;42.620;25.394;2023-06-22T14:37:12;97229.34;;;29.21;46.79
52591;BME280;38483;42.620;25.394;2023-06-22T14:39:39;97267.78;;;29.49;45.93